Time;durP1;ratioP1;P1;durP2;ratioP2;P2;SDS_P1;SDS_P2;PMS_P1;PMS_P2;Temp;Humidity;BMP_temperature;BMP_pressure;BME280_temperature;BME280_humidity;BME280_pressure;Samples;Min_cycle;Max_cycle;Signal;HPM_P1;HPM_P2
2022/10/03 00:02:17;;;;;;;0.83;0.63;;;14.10;86.90;;;;;;5017704;28;20167;-60
2022/10/03 00:05:19;;;;;;;0.73;0.63;;;14.10;86.90;;;;;;5019473;28;20049;-60
2022/10/03 00:07:57;;;;;;;0.55;0.55;;;14.10;86.70;;;;;;5019406;28;20090;-61
2022/10/03 00:11:05;;;;;;;0.50;0.50;;;14.00;86.60;;;;;;5020220;28;20041;-61
2022/10/03 00:13:52;;;;;;;1.15;0.70;;;14.00;86.60;;;;;;5020777;28;20164;-59
2022/10/03 00:16:49;;;;;;;2.10;0.80;;;13.90;86.70;;;;;;5018607;28;20127;-59
2022/10/03 00:19:36;;;;;;;1.05;0.80;;;13.80;86.80;;;;;;4975271;28;20042;-60
2022/10/03 00:22:25;;;;;;;1.80;0.90;;;13.70;86.70;;;;;;5018354;28;20088;-60
2022/10/03 00:25:16;;;;;;;1.88;0.90;;;13.70;86.90;;;;;;5018392;28;20393;-59
2022/10/03 00:27:51;;;;;;;0.98;0.60;;;13.70;86.90;;;;;;5016344;28;20030;-58
2022/10/03 00:30:21;;;;;;;0.90;0.90;;;13.60;86.70;;;;;;5016411;28;20479;-60
2022/10/03 00:33:05;;;;;;;3.00;0.80;;;13.60;86.70;;;;;;5017763;28;20064;-61
2022/10/03 00:35:34;;;;;;;1.52;0.70;;;13.60;86.80;;;;;;5016633;28;20033;-59
2022/10/03 00:38:14;;;;;;;0.60;0.60;;;13.50;86.60;;;;;;5018673;28;20542;-60
2022/10/03 00:40:55;;;;;;;0.50;0.50;;;13.50;86.30;;;;;;5016576;28;20497;-60
2022/10/03 00:44:11;;;;;;;0.70;0.70;;;13.40;85.90;;;;;;5016537;28;20176;-60
2022/10/03 00:46:49;;;;;;;0.88;0.88;;;13.40;85.70;;;;;;4983244;28;20065;-60
2022/10/03 00:50:07;;;;;;;3.22;1.27;;;13.30;85.60;;;;;;5019117;28;20042;-60
2022/10/03 00:52:55;;;;;;;1.35;1.25;;;13.20;85.50;;;;;;4918412;29;20071;-59
2022/10/03 00:55:42;;;;;;;1.70;1.60;;;13.20;85.50;;;;;;5012809;28;20037;-61
2022/10/03 00:58:13;;;;;;;2.88;1.85;;;13.10;85.30;;;;;;5018153;28;20033;-62
2022/10/03 01:00:48;;;;;;;2.10;2.00;;;13.00;85.50;;;;;;5016523;28;20113;-62
2022/10/03 01:03:38;;;;;;;2.33;2.13;;;12.90;85.70;;;;;;5014253;28;20042;-61
2022/10/03 01:06:19;;;;;;;2.53;2.30;;;12.80;85.80;;;;;;5018162;28;20322;-62
2022/10/03 01:09:05;;;;;;;2.28;2.08;;;12.70;86.00;;;;;;5017654;28;20034;-62
2022/10/03 01:12:02;;;;;;;2.92;2.55;;;12.60;85.80;;;;;;5016527;28;20048;-62
2022/10/03 01:14:50;;;;;;;3.15;2.63;;;12.50;85.90;;;;;;5017568;28;20473;-62
2022/10/03 01:17:46;;;;;;;2.67;2.47;;;12.50;86.00;;;;;;5013798;28;20468;-61
2022/10/03 01:20:31;;;;;;;3.08;2.30;;;12.40;85.90;;;;;;5017267;28;20463;-62
2022/10/03 01:23:36;;;;;;;3.85;2.70;;;12.40;86.10;;;;;;5014865;28;20414;-62
2022/10/03 01:26:26;;;;;;;2.92;2.53;;;12.30;86.00;;;;;;4934039;28;20090;-61
2022/10/03 01:32:02;;;;;;;3.58;2.83;;;12.20;86.30;;;;;;5003977;28;20115;-62
2022/10/03 01:34:51;;;;;;;4.75;2.90;;;12.20;86.40;;;;;;5015114;28;20097;-62
2022/10/03 01:37:32;;;;;;;5.05;3.05;;;12.10;86.60;;;;;;5016355;28;20054;-60
2022/10/03 01:40:23;;;;;;;4.28;2.97;;;12.10;86.70;;;;;;5017448;28;20560;-60
2022/10/03 01:43:10;;;;;;;3.20;3.00;;;12.00;86.70;;;;;;5015609;28;20440;-60
2022/10/03 01:45:54;;;;;;;4.78;2.80;;;12.00;87.00;;;;;;5017876;28;20048;-60
2022/10/03 01:48:58;;;;;;;4.38;3.00;;;11.90;88.00;;;;;;5018004;28;20038;-60
2022/10/03 01:51:53;;;;;;;2.63;2.42;;;11.90;87.20;;;;;;5001001;28;20160;-61
2022/10/03 01:54:34;;;;;;;2.92;2.55;;;11.80;87.40;;;;;;5018186;28;20558;-62
2022/10/03 01:57:20;;;;;;;3.22;2.38;;;11.80;87.40;;;;;;5015974;28;20036;-61
2022/10/03 02:00:08;;;;;;;2.97;2.78;;;11.80;87.60;;;;;;5015058;28;20068;-61
2022/10/03 02:02:49;;;;;;;2.58;2.38;;;11.80;87.20;;;;;;5014650;28;20497;-62
2022/10/03 02:05:37;;;;;;;3.03;2.53;;;11.80;86.70;;;;;;5017399;28;20037;-59
2022/10/03 02:08:15;;;;;;;3.47;2.75;;;11.70;86.40;;;;;;5017183;28;20509;-60
2022/10/03 02:11:02;;;;;;;4.70;3.20;;;11.60;86.60;;;;;;5013140;28;20048;-60
2022/10/03 02:13:39;;;;;;;3.45;3.15;;;11.60;87.00;;;;;;5017960;28;20282;-61
2022/10/03 02:16:31;;;;;;;5.78;3.17;;;11.50;87.20;;;;;;5015673;28;20727;-61
2022/10/03 02:19:23;;;;;;;3.58;3.08;;;11.40;87.70;;;;;;5003734;28;20039;-59
2022/10/03 02:21:51;;;;;;;4.10;3.20;;;11.40;88.10;;;;;;5016776;28;20575;-60
2022/10/03 02:24:26;;;;;;;4.95;4.00;;;11.30;88.00;;;;;;5016385;28;20038;-60
2022/10/03 02:26:54;;;;;;;4.20;3.80;;;11.30;88.00;;;;;;5015732;28;20642;-60
2022/10/03 02:30:02;;;;;;;3.58;3.28;;;11.30;88.10;;;;;;5015354;28;20045;-61
2022/10/03 02:32:39;;;;;;;3.75;3.38;;;11.30;88.30;;;;;;5015237;28;20033;-61
2022/10/03 02:35:28;;;;;;;3.40;2.95;;;11.20;88.20;;;;;;5014456;28;20104;-60
2022/10/03 02:37:59;;;;;;;3.90;3.00;;;11.20;88.20;;;;;;5003088;28;20029;-60
2022/10/03 02:40:52;;;;;;;3.08;2.63;;;11.30;88.30;;;;;;5014483;28;20278;-59
2022/10/03 02:43:46;;;;;;;2.83;2.63;;;11.30;87.60;;;;;;5017221;28;20045;-60
2022/10/03 02:46:18;;;;;;;3.15;2.90;;;11.30;86.80;;;;;;5017136;28;20029;-60
2022/10/03 02:49:21;;;;;;;3.03;2.83;;;11.30;86.70;;;;;;5015205;28;20399;-61
2022/10/03 02:52:07;;;;;;;3.95;3.00;;;11.20;86.20;;;;;;5017428;28;20045;-61
2022/10/03 02:54:56;;;;;;;3.30;2.42;;;11.20;86.20;;;;;;5001625;28;20595;-59
2022/10/03 02:57:53;;;;;;;3.10;2.72;;;11.10;86.40;;;;;;5013577;28;20042;-60
2022/10/03 03:00:49;;;;;;;3.08;2.78;;;11.00;86.60;;;;;;4997266;28;20033;-61
2022/10/03 03:03:24;;;;;;;2.60;2.40;;;11.00;86.90;;;;;;5015110;28;20512;-59
2022/10/03 03:06:08;;;;;;;3.10;2.80;;;10.90;86.80;;;;;;5015146;28;20068;-61
2022/10/03 03:09:01;;;;;;;2.80;2.58;;;10.90;86.90;;;;;;5014981;28;20041;-59
2022/10/03 03:11:48;;;;;;;2.92;2.63;;;10.90;87.30;;;;;;5014189;28;20034;-61
2022/10/03 03:14:36;;;;;;;2.53;2.33;;;10.80;87.60;;;;;;5015762;28;20036;-61
2022/10/03 03:17:29;;;;;;;3.05;2.67;;;10.90;87.60;;;;;;5013706;28;20769;-61
2022/10/03 03:20:01;;;;;;;6.10;2.85;;;10.90;87.40;;;;;;5017186;28;20041;-61
2022/10/03 03:22:59;;;;;;;2.90;2.70;;;10.90;87.10;;;;;;5015475;28;20124;-62
2022/10/03 03:25:33;;;;;;;2.80;2.60;;;10.90;87.90;;;;;;5014896;28;20037;-59
2022/10/03 03:28:09;;;;;;;5.07;2.90;;;10.90;87.10;;;;;;5012792;28;20474;-59
2022/10/03 03:30:49;;;;;;;3.33;2.97;;;10.80;87.10;;;;;;5013451;28;20355;-60
2022/10/03 03:33:28;;;;;;;2.72;2.45;;;10.90;87.40;;;;;;5013035;28;20030;-59
2022/10/03 03:35:53;;;;;;;3.00;2.70;;;10.80;87.30;;;;;;5015009;28;20033;-61
2022/10/03 03:38:29;;;;;;;2.85;2.65;;;10.80;87.30;;;;;;5014957;28;20029;-61
2022/10/03 03:41:16;;;;;;;3.42;3.13;;;10.80;87.10;;;;;;5013863;28;20379;-60
2022/10/03 03:44:05;;;;;;;2.95;2.75;;;10.80;86.70;;;;;;5015437;28;20588;-62
2022/10/03 03:47:03;;;;;;;4.78;2.88;;;10.80;87.00;;;;;;5013615;28;20127;-62
2022/10/03 03:49:36;;;;;;;15.27;2.90;;;10.80;87.00;;;;;;5014151;28;20076;-62
2022/10/03 03:52:34;;;;;;;6.07;2.90;;;10.80;86.90;;;;;;5014614;28;20034;-62
2022/10/03 03:55:05;;;;;;;28.23;11.15;;;10.80;86.80;;;;;;5015359;28;20505;-62
2022/10/03 03:57:55;;;;;;;87.60;24.25;;;10.80;86.60;;;;;;5013685;28;20132;-60
2022/10/03 04:00:41;;;;;;;65.55;23.33;;;10.70;86.40;;;;;;5013255;28;20029;-61
2022/10/03 04:03:50;;;;;;;41.20;16.05;;;10.70;86.30;;;;;;5014405;28;20296;-60
2022/10/03 04:06:45;;;;;;;17.10;9.18;;;10.70;86.80;;;;;;5014903;28;20175;-60
2022/10/03 04:09:34;;;;;;;20.08;9.90;;;10.70;86.90;;;;;;5008141;28;20532;-62
2022/10/03 04:12:17;;;;;;;10.98;6.78;;;10.70;87.30;;;;;;5015745;28;20128;-61
2022/10/03 04:14:58;;;;;;;11.75;5.72;;;10.70;87.00;;;;;;5017105;28;20061;-62
2022/10/03 04:20:58;;;;;;;7.75;4.70;;;10.70;86.90;;;;;;5016715;28;20048;-60
2022/10/03 04:23:59;;;;;;;5.80;4.25;;;10.70;86.90;;;;;;5017262;28;20045;-61
2022/10/03 04:26:36;;;;;;;22.00;4.25;;;10.60;86.70;;;;;;5018638;28;20038;-60
2022/10/03 04:29:40;;;;;;;36.30;4.55;;;10.60;86.40;;;;;;5018854;28;20394;-61
2022/10/03 04:32:12;;;;;;;4.05;3.30;;;10.60;85.90;;;;;;5017959;28;20038;-60
2022/10/03 04:34:37;;;;;;;10.00;3.35;;;10.60;86.00;;;;;;5016470;28;20554;-62
2022/10/03 04:37:31;;;;;;;25.75;5.78;;;10.50;86.30;;;;;;5016897;28;20061;-60
2022/10/03 04:40:23;;;;;;;42.08;6.90;;;10.50;86.40;;;;;;5015385;28;20041;-60
2022/10/03 04:42:58;;;;;;;51.53;9.32;;;10.50;86.30;;;;;;5017116;28;20183;-62
2022/10/03 04:45:47;;;;;;;16.65;8.60;;;10.40;86.20;;;;;;5019909;28;20072;-60
2022/10/03 04:48:15;;;;;;;25.73;8.57;;;10.40;86.30;;;;;;5019467;28;20038;-62
2022/10/03 04:51:07;;;;;;;24.98;8.75;;;10.40;86.60;;;;;;5016552;28;20091;-62
2022/10/03 04:53:48;;;;;;;15.35;6.97;;;10.40;87.60;;;;;;5018350;28;20068;-62
2022/10/03 04:56:30;;;;;;;15.00;6.20;;;10.30;86.70;;;;;;5019139;28;20033;-62
2022/10/03 04:59:24;;;;;;;13.80;6.70;;;10.30;86.50;;;;;;5016426;28;20100;-62
2022/10/03 05:02:15;;;;;;;10.43;5.93;;;10.30;86.70;;;;;;5016370;28;20094;-62
2022/10/03 05:04:41;;;;;;;14.20;4.97;;;10.30;86.70;;;;;;5003885;28;20069;-62
2022/10/03 05:07:15;;;;;;;18.70;5.10;;;10.30;86.50;;;;;;5016370;28;20116;-62
2022/10/03 05:09:49;;;;;;;5.38;3.83;;;10.30;86.00;;;;;;5017698;28;20124;-61
2022/10/03 05:12:37;;;;;;;4.82;3.72;;;10.30;85.90;;;;;;5016593;28;20611;-62
2022/10/03 05:15:27;;;;;;;26.20;4.00;;;10.20;86.10;;;;;;5015785;28;20044;-62
2022/10/03 05:18:17;;;;;;;25.63;3.40;;;10.20;85.90;;;;;;5018196;28;20497;-60
2022/10/03 05:20:55;;;;;;;19.40;2.88;;;10.20;85.70;;;;;;5014580;28;20038;-60
2022/10/03 05:23:36;;;;;;;4.38;2.33;;;10.10;85.70;;;;;;5016183;28;20113;-62
2022/10/03 05:26:24;;;;;;;14.80;2.67;;;10.10;86.00;;;;;;5016933;28;20046;-62
2022/10/03 05:29:01;;;;;;;4.70;2.45;;;10.10;86.70;;;;;;5015432;28;20401;-61
2022/10/03 05:31:55;;;;;;;36.03;2.70;;;10.10;86.80;;;;;;5016831;28;20249;-60
2022/10/03 05:34:30;;;;;;;31.50;2.70;;;10.10;86.60;;;;;;5017651;28;20509;-58
2022/10/03 05:37:16;;;;;;;30.95;5.07;;;10.00;86.40;;;;;;5015564;28;20486;-61
2022/10/03 05:39:45;;;;;;;19.48;4.43;;;10.00;86.10;;;;;;5016765;28;20057;-61
2022/10/03 05:42:44;;;;;;;6.65;3.20;;;9.90;86.20;;;;;;5016696;28;20037;-62
2022/10/03 05:45:41;;;;;;;6.43;2.42;;;9.90;86.80;;;;;;5016896;28;20030;-60
2022/10/03 05:48:49;;;;;;;2.53;2.33;;;9.90;87.10;;;;;;5015338;28;20026;-62
2022/10/03 05:51:19;;;;;;;2.67;2.47;;;9.90;87.30;;;;;;5014978;28;20083;-62
2022/10/03 05:54:02;;;;;;;6.43;3.10;;;9.80;87.30;;;;;;5014537;28;20037;-60
2022/10/03 05:56:57;;;;;;;13.82;3.50;;;9.90;87.50;;;;;;5015174;28;20021;-61
2022/10/03 05:59:42;;;;;;;5.82;3.72;;;9.90;87.70;;;;;;5016191;28;20038;-60
2022/10/03 06:02:26;;;;;;;11.52;5.00;;;9.90;87.80;;;;;;5017391;28;20112;-60
2022/10/03 06:05:03;;;;;;;5.25;3.90;;;9.90;87.70;;;;;;5011928;28;20037;-61
2022/10/03 06:07:43;;;;;;;15.10;4.93;;;9.90;87.70;;;;;;5011961;28;20033;-60
2022/10/03 06:10:24;;;;;;;16.17;5.03;;;9.90;87.70;;;;;;5017079;28;20057;-57
2022/10/03 06:13:14;;;;;;;8.70;4.85;;;9.90;87.80;;;;;;5014792;28;20041;-60
2022/10/03 06:16:04;;;;;;;11.25;5.10;;;10.00;87.70;;;;;;5014117;28;20034;-60
2022/10/03 06:18:35;;;;;;;8.75;4.07;;;9.90;87.80;;;;;;5007920;28;20399;-61
2022/10/03 06:21:40;;;;;;;13.77;2.92;;;9.90;87.60;;;;;;5012474;28;20041;-60
2022/10/03 06:24:24;;;;;;;12.70;2.10;;;9.90;87.50;;;;;;5010225;28;20439;-61
2022/10/03 06:27:28;;;;;;;15.18;2.00;;;9.90;87.30;;;;;;5014953;28;20049;-57
2022/10/03 06:30:17;;;;;;;18.35;1.77;;;9.90;87.60;;;;;;5015800;28;20050;-60
2022/10/03 06:33:02;;;;;;;15.70;2.10;;;9.90;87.80;;;;;;5011889;28;20041;-60
2022/10/03 06:36:08;;;;;;;12.30;2.15;;;9.90;87.80;;;;;;5011979;28;20107;-61
2022/10/03 06:38:58;;;;;;;1.52;1.42;;;9.90;88.30;;;;;;5008516;28;20072;-60
2022/10/03 06:42:03;;;;;;;11.40;1.92;;;9.90;88.50;;;;;;5005532;28;20054;-61
2022/10/03 06:44:47;;;;;;;6.20;2.20;;;9.90;88.60;;;;;;4966284;28;20557;-60
2022/10/03 06:47:36;;;;;;;18.83;2.30;;;9.90;88.60;;;;;;5008030;28;20044;-61
2022/10/03 06:50:40;;;;;;;23.85;2.38;;;9.90;88.40;;;;;;4975966;28;20284;-60
2022/10/03 06:53:31;;;;;;;21.20;3.08;;;9.90;89.00;;;;;;5008223;28;20033;-60
2022/10/03 06:56:00;;;;;;;3.20;2.53;;;9.90;88.80;;;;;;4995159;28;20037;-60
2022/10/03 06:58:44;;;;;;;19.50;2.95;;;10.00;88.80;;;;;;5004415;28;20064;-61
2022/10/03 07:01:49;;;;;;;3.90;2.70;;;10.00;89.60;;;;;;5012871;28;20075;-61
2022/10/03 07:04:26;;;;;;;6.13;2.77;;;10.00;89.70;;;;;;5006738;28;20061;-62
2022/10/03 07:07:08;;;;;;;3.65;2.65;;;10.10;89.40;;;;;;5010220;28;20353;-62
2022/10/03 07:10:00;;;;;;;3.15;2.90;;;10.10;90.20;;;;;;5008811;28;20431;-60
2022/10/03 07:12:46;;;;;;;6.60;5.20;;;10.20;90.00;;;;;;5009388;28;20041;-61
2022/10/03 07:15:34;;;;;;;13.35;9.85;;;10.20;90.30;;;;;;5008594;28;20139;-59
2022/10/03 07:18:15;;;;;;;15.65;10.05;;;10.30;90.20;;;;;;5012293;28;20029;-61
2022/10/03 07:20:40;;;;;;;13.43;9.18;;;10.40;90.20;;;;;;5015028;28;20585;-60
2022/10/03 07:23:40;;;;;;;10.18;8.60;;;10.40;90.10;;;;;;5013741;28;20509;-60
2022/10/03 07:26:23;;;;;;;8.25;6.65;;;10.50;90.50;;;;;;5008325;28;20034;-59
2022/10/03 07:29:27;;;;;;;7.65;5.60;;;10.60;90.50;;;;;;5012238;28;20061;-60
2022/10/03 07:32:16;;;;;;;6.45;5.40;;;10.60;90.70;;;;;;5007590;28;20038;-60
2022/10/03 07:34:47;;;;;;;5.57;5.07;;;10.70;90.70;;;;;;5005562;28;20041;-61
2022/10/03 07:40:34;;;;;;;7.78;5.43;;;10.80;90.70;;;;;;5013057;28;20080;-60
2022/10/03 07:43:27;;;;;;;6.07;5.47;;;10.90;90.80;;;;;;5010415;28;20117;-58
2022/10/03 07:46:24;;;;;;;5.13;4.63;;;11.00;91.00;;;;;;5012748;28;20037;-59
2022/10/03 07:49:20;;;;;;;6.32;5.20;;;11.00;90.80;;;;;;4943023;28;20044;-60
2022/10/03 07:51:52;;;;;;;6.15;5.55;;;11.10;91.30;;;;;;4991944;28;20029;-61
2022/10/03 07:54:17;;;;;;;6.15;5.43;;;11.20;91.00;;;;;;5011797;28;20112;-59
2022/10/03 07:56:49;;;;;;;7.38;5.93;;;11.30;91.10;;;;;;5014078;28;20045;-61
2022/10/03 07:59:42;;;;;;;5.93;4.95;;;11.40;91.50;;;;;;5010591;28;20040;-61
2022/10/03 08:02:38;;;;;;;7.07;5.57;;;11.50;91.60;;;;;;5009865;28;20060;-61
2022/10/03 08:05:04;;;;;;;6.00;5.05;;;11.70;91.90;;;;;;5016483;28;20544;-60
2022/10/03 08:07:47;;;;;;;6.45;5.07;;;11.70;91.50;;;;;;5019965;28;20038;-61
2022/10/03 08:10:50;;;;;;;6.47;5.53;;;11.80;91.80;;;;;;5020496;28;20156;-61
2022/10/03 08:14:10;;;;;;;9.88;6.47;;;12.00;92.00;;;;;;5017656;28;20103;-61
2022/10/03 08:17:10;;;;;;;6.90;5.93;;;12.10;92.00;;;;;;4957699;28;20039;-60
2022/10/03 08:19:47;;;;;;;8.23;6.75;;;12.20;91.90;;;;;;5019015;28;20095;-62
2022/10/03 08:22:37;;;;;;;9.15;7.30;;;12.30;91.70;;;;;;5018363;28;20147;-60
2022/10/03 08:25:06;;;;;;;8.27;6.70;;;12.40;91.70;;;;;;5019818;28;20096;-61
2022/10/03 08:27:43;;;;;;;8.70;6.65;;;12.50;91.50;;;;;;5017699;28;20034;-61
2022/10/03 08:30:51;;;;;;;9.18;6.55;;;12.60;91.40;;;;;;5017447;28;20128;-60
2022/10/03 08:33:35;;;;;;;7.57;6.75;;;12.70;91.40;;;;;;5015469;28;20136;-62
2022/10/03 08:36:16;;;;;;;10.13;7.05;;;12.80;91.20;;;;;;5017428;28;20041;-60
2022/10/03 08:39:10;;;;;;;12.68;7.07;;;12.90;91.10;;;;;;5015930;28;20490;-62
2022/10/03 08:42:18;;;;;;;7.50;6.27;;;13.00;91.00;;;;;;5018998;28;20038;-62
2022/10/03 08:45:09;;;;;;;7.97;6.35;;;13.10;90.70;;;;;;5016899;28;20042;-62
2022/10/03 08:48:12;;;;;;;9.38;7.28;;;13.20;90.70;;;;;;5017733;28;20037;-62
2022/10/03 08:50:52;;;;;;;11.43;7.45;;;13.30;90.70;;;;;;5018112;28;20037;-62
2022/10/03 08:53:55;;;;;;;9.07;6.95;;;13.40;90.50;;;;;;5018966;28;20038;-61
2022/10/03 08:56:45;;;;;;;8.98;6.95;;;13.40;90.00;;;;;;5015435;28;20041;-62
2022/10/03 08:59:32;;;;;;;8.15;6.57;;;13.50;90.00;;;;;;5014682;28;20513;-62
2022/10/03 09:02:35;;;;;;;7.80;6.63;;;13.60;89.70;;;;;;5015784;28;20052;-60
2022/10/03 09:05:19;;;;;;;9.40;6.72;;;13.70;89.20;;;;;;5018230;28;20046;-62
2022/10/03 09:08:03;;;;;;;9.55;6.85;;;13.70;89.40;;;;;;5015840;28;20399;-60
2022/10/03 09:10:57;;;;;;;8.50;6.38;;;13.80;89.00;;;;;;5018779;28;20045;-61
2022/10/03 09:13:40;;;;;;;7.90;5.95;;;13.90;88.20;;;;;;5015988;28;20037;-62
2022/10/03 09:16:32;;;;;;;8.10;6.57;;;14.00;88.30;;;;;;5016433;28;20062;-61
2022/10/03 09:19:16;;;;;;;8.38;6.03;;;14.00;87.30;;;;;;5018742;28;20409;-61
2022/10/03 09:22:03;;;;;;;14.23;6.05;;;14.00;87.40;;;;;;5019878;28;20034;-60
2022/10/03 09:25:00;;;;;;;7.85;5.82;;;14.00;87.10;;;;;;5018978;28;20030;-60
2022/10/03 09:27:49;;;;;;;11.60;5.57;;;14.10;86.90;;;;;;5018540;28;20508;-60
2022/10/03 09:30:37;;;;;;;9.98;5.47;;;14.10;86.20;;;;;;5015535;28;20034;-61
2022/10/03 09:33:21;;;;;;;8.65;5.57;;;14.10;86.00;;;;;;5014162;28;20049;-60
2022/10/03 09:36:24;;;;;;;9.82;5.53;;;14.10;86.00;;;;;;5016845;28;20046;-59
2022/10/03 09:39:47;;;;;;;8.10;5.60;;;14.20;85.70;;;;;;5018574;28;20482;-60
2022/10/03 09:42:16;;;;;;;8.68;5.18;;;14.30;84.50;;;;;;4936446;28;20148;-61
2022/10/03 09:45:14;;;;;;;5.20;4.70;;;14.30;85.10;;;;;;5013250;28;20092;-61
2022/10/03 09:47:57;;;;;;;7.28;5.40;;;14.30;83.50;;;;;;5011133;28;20166;-60
2022/10/03 09:50:54;;;;;;;8.80;4.95;;;14.30;83.00;;;;;;5016619;28;20040;-61
2022/10/03 09:54:06;;;;;;;5.85;4.78;;;14.30;83.60;;;;;;5016831;28;20030;-60
2022/10/03 09:56:34;;;;;;;8.15;5.22;;;14.40;83.10;;;;;;5019282;28;20026;-61
2022/10/03 09:59:14;;;;;;;5.95;4.85;;;14.40;84.40;;;;;;5016640;28;20046;-61
2022/10/03 10:01:56;;;;;;;5.32;4.63;;;14.40;84.30;;;;;;5017905;28;20516;-60
2022/10/03 10:04:43;;;;;;;7.60;5.00;;;14.50;84.10;;;;;;5016404;28;20056;-60
2022/10/03 10:07:27;;;;;;;5.88;4.28;;;14.50;83.10;;;;;;5015923;28;20033;-61
2022/10/03 10:10:11;;;;;;;6.82;4.93;;;14.60;84.00;;;;;;5016631;28;21136;-61
2022/10/03 10:13:14;;;;;;;6.75;4.53;;;14.60;83.50;;;;;;5011109;28;20337;-61
2022/10/03 10:16:17;;;;;;;7.25;4.50;;;14.70;81.00;;;;;;5013744;28;20060;-61
2022/10/03 10:19:20;;;;;;;6.38;4.10;;;14.70;80.40;;;;;;5016277;28;20133;-61
2022/10/03 10:21:55;;;;;;;5.03;4.00;;;14.70;81.50;;;;;;5017374;28;20057;-59
2022/10/03 10:24:36;;;;;;;6.22;4.53;;;14.70;82.40;;;;;;5016455;28;20504;-61
2022/10/03 10:27:35;;;;;;;5.47;3.88;;;14.70;81.80;;;;;;5016547;28;20040;-62
2022/10/03 10:30:24;;;;;;;4.80;3.78;;;14.80;81.30;;;;;;5017370;28;20101;-60
2022/10/03 10:33:41;;;;;;;5.78;4.57;;;14.80;81.00;;;;;;5017490;28;20528;-62
2022/10/03 10:36:25;;;;;;;;;;;14.80;80.80;;;;;;5017835;28;20041;-61
2022/10/03 10:38:58;;;;;;;5.97;3.42;;;14.90;81.50;;;;;;5017939;28;19917;-62
2022/10/03 10:41:58;;;;;;;8.27;4.10;;;14.90;81.90;;;;;;5018732;28;20064;-61
2022/10/03 10:44:48;;;;;;;4.38;3.58;;;14.90;80.20;;;;;;5017173;28;20044;-61
2022/10/03 10:47:59;;;;;;;6.10;3.75;;;14.90;80.50;;;;;;5016506;28;20034;-60
2022/10/03 10:50:51;;;;;;;5.65;3.45;;;14.90;80.20;;;;;;5013120;28;20041;-60
2022/10/03 10:53:54;;;;;;;4.90;3.60;;;15.00;80.90;;;;;;4989014;28;20576;-60
2022/10/03 10:56:26;;;;;;;5.85;3.42;;;15.10;79.40;;;;;;5018510;28;20059;-61
2022/10/03 10:59:11;;;;;;;6.43;3.40;;;15.20;79.80;;;;;;5016789;28;20038;-60
2022/10/03 11:02:14;;;;;;;5.38;3.05;;;15.20;79.80;;;;;;5019369;28;20531;-59
2022/10/03 11:04:54;;;;;;;3.80;2.58;;;15.30;75.40;;;;;;5014016;28;20038;-62
2022/10/03 11:07:44;;;;;;;5.38;3.10;;;15.40;77.70;;;;;;5014394;28;20037;-60
2022/10/03 11:10:34;;;;;;;4.82;2.90;;;15.50;78.00;;;;;;5015794;28;20402;-59
2022/10/03 11:13:56;;;;;;;4.90;3.08;;;15.60;77.40;;;;;;5019427;28;20086;-62
2022/10/03 11:17:00;;;;;;;3.67;2.80;;;15.70;75.40;;;;;;5012842;28;20041;-61
2022/10/03 11:20:03;;;;;;;5.03;3.20;;;15.70;76.30;;;;;;5016742;28;20120;-61
2022/10/03 11:22:53;;;;;;;5.70;3.67;;;15.70;76.60;;;;;;5017643;28;20440;-60
2022/10/03 11:25:50;;;;;;;4.03;3.60;;;15.80;74.70;;;;;;5017825;28;20036;-60
2022/10/03 11:28:25;;;;;;;4.78;3.60;;;15.70;75.40;;;;;;5016447;28;20057;-61
2022/10/03 11:31:13;;;;;;;5.45;3.25;;;15.70;77.30;;;;;;5018286;28;20038;-61
2022/10/03 11:33:47;;;;;;;4.47;3.20;;;15.70;77.10;;;;;;5018639;28;20048;-61
2022/10/03 11:36:43;;;;;;;5.60;3.10;;;15.60;77.30;;;;;;5016245;28;20033;-61
2022/10/03 11:39:15;;;;;;;;;;;15.70;77.00;;;;;;5018460;28;20119;-61
2022/10/03 11:42:01;;;;;;;3.53;2.83;;;15.80;77.00;;;;;;5018109;28;20305;-62
2022/10/03 11:44:32;;;;;;;4.53;2.72;;;15.80;76.40;;;;;;5017054;28;20174;-61
2022/10/03 11:47:43;;;;;;;4.35;2.60;;;15.70;76.50;;;;;;5017410;28;20443;-61
2022/10/03 11:50:40;;;;;;;3.83;2.55;;;15.80;74.60;;;;;;5014985;28;20045;-61
2022/10/03 11:53:11;;;;;;;4.95;3.13;;;15.90;75.40;;;;;;5013738;28;20130;-60
2022/10/03 11:56:02;;;;;;;4.43;2.90;;;16.00;76.80;;;;;;5013502;28;20064;-60
2022/10/03 11:58:31;;;;;;;4.22;2.67;;;16.10;74.40;;;;;;5012784;28;20041;-61
2022/10/03 12:01:27;;;;;;;3.08;2.53;;;16.20;76.00;;;;;;5013083;28;20052;-60
2022/10/03 12:04:06;;;;;;;4.65;2.40;;;16.20;73.90;;;;;;5014585;28;20065;-62
2022/10/03 12:09:58;;;;;;;3.75;2.50;;;16.40;72.50;;;;;;5014886;28;20397;-60
2022/10/03 12:12:36;;;;;;;4.97;2.95;;;16.40;70.50;;;;;;5015185;28;20095;-61
2022/10/03 12:15:34;;;;;;;3.38;2.47;;;16.50;69.30;;;;;;5011967;28;20026;-62
2022/10/03 12:18:37;;;;;;;4.63;2.78;;;16.50;69.10;;;;;;5011627;28;20285;-61
2022/10/03 12:21:22;;;;;;;7.38;3.28;;;16.50;68.80;;;;;;5000796;28;20034;-61
2022/10/03 12:24:02;;;;;;;3.53;2.85;;;16.50;68.50;;;;;;5012239;28;20156;-62
2022/10/03 12:26:34;;;;;;;2.92;2.60;;;16.50;70.00;;;;;;5016540;28;20030;-60
2022/10/03 12:29:00;;;;;;;4.90;3.10;;;16.50;71.20;;;;;;5018420;28;20556;-60
2022/10/03 12:31:34;;;;;;;5.78;2.83;;;16.50;69.00;;;;;;5019424;28;20048;-62
2022/10/03 12:34:06;;;;;;;4.13;2.93;;;16.50;69.20;;;;;;5013638;28;20379;-61
2022/10/03 12:36:55;;;;;;;4.13;2.90;;;16.60;69.50;;;;;;5014686;28;20293;-61
2022/10/03 12:39:26;;;;;;;4.22;2.65;;;16.60;68.60;;;;;;5017116;28;20524;-62
2022/10/03 12:42:14;;;;;;;3.28;2.72;;;16.60;70.30;;;;;;5013067;28;20049;-60
2022/10/03 12:44:43;;;;;;;3.78;2.78;;;16.60;70.20;;;;;;5012485;28;20514;-61
2022/10/03 12:47:27;;;;;;;3.53;2.45;;;16.60;68.90;;;;;;5013705;28;20096;-59
2022/10/03 12:50:30;;;;;;;2.97;2.78;;;16.70;68.90;;;;;;5015806;28;20132;-61
2022/10/03 12:52:56;;;;;;;4.55;2.83;;;16.70;66.70;;;;;;4988588;28;20041;-61
2022/10/03 12:55:35;;;;;;;3.63;3.00;;;16.70;70.40;;;;;;5016010;28;20037;-59
2022/10/03 12:58:10;;;;;;;6.88;3.05;;;16.70;70.40;;;;;;5016446;28;20060;-59
2022/10/03 13:01:01;;;;;;;4.88;2.97;;;16.80;71.20;;;;;;5012915;28;20021;-61
2022/10/03 13:03:50;;;;;;;3.28;2.65;;;16.80;70.60;;;;;;5018877;28;20501;-59
2022/10/03 13:06:23;;;;;;;5.45;2.85;;;16.80;69.50;;;;;;5015152;28;20445;-60
2022/10/03 13:09:19;;;;;;;4.85;2.85;;;16.90;70.50;;;;;;5014934;28;20092;-62
2022/10/03 13:12:16;;;;;;;3.10;2.60;;;16.90;68.30;;;;;;5019943;28;20544;-60
2022/10/03 13:15:02;;;;;;;4.72;2.53;;;16.90;68.40;;;;;;5018301;28;20515;-61
2022/10/03 13:17:40;;;;;;;3.38;2.88;;;16.90;69.10;;;;;;5015171;28;20037;-60
2022/10/03 13:20:19;;;;;;;4.70;2.60;;;16.90;69.50;;;;;;5017068;28;20065;-62
2022/10/03 13:23:10;;;;;;;2.80;2.22;;;16.90;69.10;;;;;;5017570;28;20038;-59
2022/10/03 13:25:42;;;;;;;5.63;3.08;;;16.90;68.50;;;;;;5019844;28;20059;-60
2022/10/03 13:28:21;;;;;;;4.00;2.47;;;16.90;67.30;;;;;;5019173;28;20037;-60
2022/10/03 13:30:56;;;;;;;4.93;2.70;;;16.90;68.00;;;;;;5018245;28;20505;-61
2022/10/03 13:33:27;;;;;;;3.28;2.70;;;16.90;67.80;;;;;;5017373;28;20042;-60
2022/10/03 13:36:08;;;;;;;4.93;2.58;;;16.80;68.10;;;;;;5016873;28;20037;-61
2022/10/03 13:38:50;;;;;;;5.65;2.20;;;16.80;67.40;;;;;;5016591;28;20067;-60
2022/10/03 13:41:35;;;;;;;3.15;2.40;;;16.80;68.30;;;;;;5018585;28;20044;-61
2022/10/03 13:44:22;;;;;;;2.50;2.30;;;16.80;66.70;;;;;;5016848;28;20048;-62
2022/10/03 13:46:56;;;;;;;3.88;2.50;;;16.80;68.00;;;;;;5010212;28;20040;-60
2022/10/03 13:49:43;;;;;;;2.80;2.13;;;16.90;68.30;;;;;;5015666;28;20041;-61
2022/10/03 13:52:40;;;;;;;4.60;2.30;;;16.90;68.30;;;;;;5018881;28;20022;-60
2022/10/03 13:55:26;;;;;;;2.60;2.05;;;17.00;67.80;;;;;;5017190;28;20041;-61
2022/10/03 13:58:04;;;;;;;3.00;2.17;;;17.00;68.10;;;;;;5016184;28;20803;-62
2022/10/03 14:01:12;;;;;;;3.45;2.10;;;17.00;66.10;;;;;;5016569;28;20398;-62
2022/10/03 14:04:08;;;;;;;2.40;2.08;;;17.10;66.60;;;;;;5018134;28;20642;-62
2022/10/03 14:07:09;;;;;;;2.40;2.03;;;17.20;67.20;;;;;;5013868;28;20034;-60
2022/10/03 14:09:50;;;;;;;4.85;2.05;;;17.20;67.40;;;;;;5016562;28;20033;-61
2022/10/03 14:12:37;;;;;;;2.47;2.10;;;17.30;67.90;;;;;;5016283;28;20396;-59
2022/10/03 14:15:47;;;;;;;2.40;1.98;;;17.30;68.10;;;;;;5016733;28;20057;-61
2022/10/03 14:18:19;;;;;;;2.78;2.20;;;17.40;67.30;;;;;;4998875;28;20022;-61
2022/10/03 14:21:21;;;;;;;4.07;2.00;;;17.40;67.20;;;;;;5016583;28;20044;-61
2022/10/03 14:23:54;;;;;;;4.53;2.40;;;17.40;66.70;;;;;;5017584;28;20042;-61
2022/10/03 14:26:36;;;;;;;3.63;2.17;;;17.40;67.30;;;;;;5014027;28;20037;-61
2022/10/03 14:29:25;;;;;;;3.70;2.10;;;17.40;67.70;;;;;;5017462;28;20046;-61
2022/10/03 14:31:58;;;;;;;3.72;2.08;;;17.40;66.70;;;;;;5017664;28;20044;-61
2022/10/03 14:34:42;;;;;;;3.28;2.30;;;17.40;67.50;;;;;;5016726;28;20194;-60
2022/10/03 14:37:31;;;;;;;4.10;2.30;;;17.40;67.30;;;;;;5016795;28;20040;-62
2022/10/03 14:40:16;;;;;;;2.95;1.95;;;17.30;68.10;;;;;;5018932;28;20068;-60